Αρχική σελίδα
METAR-TAF:

METAR-TAF

Αεροδρόμια :

Γκραν Κανάρια, Ισπανία

γεωγραφικό πλάτος: 27-56N, γεωγραφικό μήκος: 015-23W, υψόμετρο: 23 μ

Παρών καιρός

Η αναφορά έγινε 16 λεπτά πριν, στις 12:30 UTC
Άνεμος 13 kt από Β/BA
Θερμοκρασία 21°C
Υγρασία 64%
Πίεση 1027 hPa
Ορατότητα 10 χλμ και άνω
Λίγα νέφη σε ύψος 2500 πόδια

METAR: GCLP 101230Z 03013KT 9999 FEW025 21/14 Q1027 NOSIG

Χρόνος: 12:46 (12:46 UTC)

Πρόγνωση Καιρού

Η αναφορά έγινε 4 ώρες και 46 λεπτά πριν, στις 08:00 UTC
Η πρόγνωση ισχύει από τις 10 στις 09 UTC έως τις 11 στις 09 UTC
Άνεμος 16 kt από Β/BA
Ορατότητα 10 χλμ και άνω
Λίγα νέφη σε ύψος 2500 πόδια

TAF: GCLP 100800Z 1009/1109 02016KT 9999 FEW025 TX22/1014Z TN18/1106Z

Μετεωρολογικές αναφορές και προγνώσεις για περισσότερα από 4000 αεροδρόμια (δελτία METAR και TAF).

Οι διαθέσιμοι σταθμοί απεικονίζονται στο χάρτη με κίτρινες και κόκκινες κουκκίδες.

Μετακινήστε το ποντίκι πάνω από τις κουκκίδες για να δείτε το όνομα του σταθμού.

Στη συνέχεια, κάντε κλικ για να δείτε τις μετεωρολογικές αναφορές και τις προγνώσεις καιρού.

Για να αλλάξετε το χάρτη: κάντε κλικ στα πράσινα κουμπιά με τον μαύρο σταυρό για να ζουμάρετε, στο πράσινο κουμπί με την παύλα για να αφαιρέσετε το ζουμ ή στα πράσινα βέλη για να αντιπαραβάλλετε χάρτες.


METAR-TAF: